createdAt,value
2023-04-02T00:02:22.981Z,91.98
2023-04-02T00:05:20.941Z,92.01
2023-04-02T00:07:51.618Z,91.89
2023-04-02T00:10:35.192Z,92.01
2023-04-02T00:13:10.480Z,92.17
2023-04-02T00:15:38.975Z,92.14
2023-04-02T00:18:06.667Z,91.69
2023-04-02T00:20:38.605Z,92.12
2023-04-02T00:23:06.649Z,91.66
2023-04-02T00:25:43.248Z,91.62
2023-04-02T00:28:19.022Z,91.24
2023-04-02T00:30:48.026Z,91.42
2023-04-02T00:33:18.450Z,91.65
2023-04-02T00:35:45.154Z,91.68
2023-04-02T00:38:32.237Z,91.55
2023-04-02T00:41:02.788Z,90.82
2023-04-02T00:43:35.804Z,91.32
2023-04-02T00:46:14.572Z,91.03
2023-04-02T00:49:08.889Z,91.72
2023-04-02T00:51:44.556Z,91.36
2023-04-02T00:54:15.707Z,90.75
2023-04-02T00:56:48.783Z,91.29
2023-04-02T00:59:29.670Z,91.02
2023-04-02T01:02:14.784Z,91.00
2023-04-02T01:04:56.951Z,90.66
2023-04-02T01:07:42.432Z,90.69
2023-04-02T01:10:23.060Z,90.95
2023-04-02T01:13:36.289Z,91.03
2023-04-02T01:16:25.867Z,90.41
2023-04-02T01:19:13.559Z,90.19
2023-04-02T01:22:09.487Z,90.40
2023-04-02T01:24:39.032Z,90.43
2023-04-02T01:27:16.391Z,89.97
2023-04-02T01:29:48.578Z,90.34
2023-04-02T01:32:19.686Z,90.53
2023-04-02T01:34:48.558Z,90.20
2023-04-02T01:37:24.024Z,89.93
2023-04-02T01:40:20.730Z,89.74
2023-04-02T01:43:22.182Z,89.67
2023-04-02T01:45:49.634Z,89.34
2023-04-02T01:48:24.577Z,89.84
2023-04-02T01:50:54.877Z,89.67
2023-04-02T01:53:24.351Z,89.31
2023-04-02T01:55:53.994Z,89.69
2023-04-02T01:58:27.434Z,89.46
2023-04-02T02:01:21.947Z,88.81
2023-04-02T02:03:51.779Z,88.83
2023-04-02T02:06:19.427Z,89.20
2023-04-02T02:08:53.242Z,89.28
2023-04-02T02:11:23.108Z,89.24
2023-04-02T02:13:58.991Z,89.21
2023-04-02T02:16:31.779Z,89.86
2023-04-02T02:19:02.921Z,89.57
2023-04-02T02:21:48.352Z,89.92
2023-04-02T02:24:21.692Z,89.44
2023-04-02T02:26:55.284Z,89.25
2023-04-02T02:29:26.298Z,88.87
2023-04-02T02:31:55.833Z,89.04
2023-04-02T02:34:29.741Z,89.10
2023-04-02T02:37:06.960Z,89.28
2023-04-02T02:39:39.152Z,89.19
2023-04-02T02:42:22.553Z,89.14
2023-04-02T02:44:51.943Z,88.93
2023-04-02T02:47:36.756Z,89.04
2023-04-02T02:50:10.355Z,89.36
2023-04-02T02:52:39.258Z,89.40
2023-04-02T02:55:14.739Z,89.59
2023-04-02T02:58:06.913Z,89.05
2023-04-02T03:00:42.302Z,89.31
2023-04-02T03:03:21.865Z,89.39
2023-04-02T03:06:03.224Z,89.52
2023-04-02T03:08:37.045Z,88.77
2023-04-02T03:11:11.733Z,88.78
2023-04-02T03:13:42.802Z,88.95
2023-04-02T03:16:34.880Z,88.57
2023-04-02T03:19:16.327Z,89.26
2023-04-02T03:21:48.632Z,88.95
2023-04-02T03:24:45.890Z,89.09
2023-04-02T03:27:20.506Z,87.98
2023-04-02T03:30:23.071Z,89.04
2023-04-02T03:32:54.418Z,88.34
2023-04-02T03:35:35.466Z,88.30
2023-04-02T03:38:18.065Z,88.09
2023-04-02T03:41:03.529Z,87.09
2023-04-02T03:43:40.746Z,87.98
2023-04-02T03:46:32.298Z,87.65
2023-04-02T03:49:12.488Z,87.16
2023-04-02T03:52:05.199Z,87.44
2023-04-02T03:54:33.155Z,87.46
2023-04-02T03:57:00.943Z,87.13
2023-04-02T03:59:42.653Z,87.89
2023-04-02T04:02:33.448Z,87.59
2023-04-02T04:05:03.562Z,87.41
2023-04-02T04:07:38.457Z,87.02
2023-04-02T04:10:07.733Z,87.24
2023-04-02T04:12:43.509Z,86.77
2023-04-02T04:15:21.350Z,87.08
2023-04-02T04:18:10.359Z,86.25
2023-04-02T04:20:57.261Z,85.54
2023-04-02T04:23:37.541Z,85.25
2023-04-02T04:26:21.053Z,85.04
2023-04-02T04:29:15.520Z,85.41
2023-04-02T04:31:55.691Z,85.10
2023-04-02T04:34:46.909Z,84.89
2023-04-02T04:37:21.667Z,84.76
2023-04-02T04:39:56.321Z,85.00
2023-04-02T04:42:29.153Z,83.18
2023-04-02T04:45:16.821Z,83.59
2023-04-02T04:48:08.166Z,83.54
2023-04-02T04:50:42.594Z,84.53
2023-04-02T04:53:17.238Z,83.64
2023-04-02T04:55:47.725Z,83.46
2023-04-02T04:58:35.944Z,84.88
2023-04-02T05:01:10.509Z,84.58
2023-04-02T05:03:58.405Z,84.63
2023-04-02T05:06:41.138Z,84.58
2023-04-02T05:09:41.402Z,82.14
2023-04-02T05:12:37.896Z,82.00
2023-04-02T05:15:33.968Z,82.42
2023-04-02T05:18:27.510Z,81.87
2023-04-02T05:21:07.090Z,79.90
2023-04-02T05:23:40.201Z,81.67
2023-04-02T05:26:18.915Z,81.92
2023-04-02T05:29:05.786Z,81.91
2023-04-02T05:31:54.374Z,81.87
2023-04-02T05:34:29.936Z,80.90
2023-04-02T05:36:58.572Z,82.02
2023-04-02T05:39:27.263Z,82.45
2023-04-02T05:42:06.424Z,81.61
2023-04-02T05:45:05.049Z,82.72
2023-04-02T05:47:33.597Z,82.66
2023-04-02T05:50:05.836Z,82.01
2023-04-02T05:52:43.126Z,81.42
2023-04-02T05:55:12.624Z,81.29
2023-04-02T05:58:35.461Z,81.42
2023-04-02T06:01:30.897Z,81.28
2023-04-02T06:04:16.159Z,80.90
2023-04-02T06:06:47.263Z,81.64
2023-04-02T06:09:28.853Z,81.53
2023-04-02T06:12:44.532Z,80.12
2023-04-02T06:15:19.027Z,80.53
2023-04-02T06:17:51.374Z,80.61
2023-04-02T06:20:20.924Z,80.70
2023-04-02T06:22:52.828Z,81.94
2023-04-02T06:25:40.516Z,80.51
2023-04-02T06:28:17.122Z,81.69
2023-04-02T06:30:55.114Z,81.97
2023-04-02T06:33:22.082Z,81.35
2023-04-02T06:35:53.346Z,81.91
2023-04-02T06:38:30.658Z,80.99
2023-04-02T06:41:00.838Z,81.18
2023-04-02T06:43:49.506Z,80.27
2023-04-02T06:46:34.431Z,80.77
2023-04-02T06:49:23.749Z,80.53
2023-04-02T06:51:56.840Z,80.55
2023-04-02T06:54:24.672Z,80.81
2023-04-02T06:56:57.334Z,81.11
2023-04-02T06:59:27.985Z,81.52
2023-04-02T07:02:00.862Z,81.10
2023-04-02T07:04:35.499Z,81.08
2023-04-02T07:07:02.929Z,81.07
2023-04-02T07:09:33.664Z,80.30
2023-04-02T07:12:10.806Z,80.42
2023-04-02T07:14:40.011Z,80.89
2023-04-02T07:17:07.830Z,81.53
2023-04-02T07:19:34.385Z,81.39
2023-04-02T07:22:00.858Z,81.87
2023-04-02T07:24:33.128Z,81.29
2023-04-02T07:26:59.645Z,81.66
2023-04-02T07:29:26.267Z,81.65
2023-04-02T07:31:53.886Z,81.27
2023-04-02T07:34:22.597Z,80.57
2023-04-02T07:40:40.980Z,82.44
2023-04-02T07:43:08.478Z,82.25
2023-04-02T07:48:42.040Z,81.90
2023-04-02T07:52:10.362Z,82.07
2023-04-02T07:54:46.124Z,81.84
2023-04-02T07:57:39.004Z,82.03
2023-04-02T08:05:37.006Z,81.15
2023-04-02T08:08:09.177Z,81.25
2023-04-02T08:10:36.036Z,81.42
2023-04-02T08:13:09.201Z,81.53
2023-04-02T08:15:35.967Z,81.57
2023-04-02T08:18:12.364Z,81.09
2023-04-02T08:20:42.191Z,80.76
2023-04-02T08:23:31.961Z,80.76
2023-04-02T08:25:58.489Z,81.04
2023-04-02T08:28:28.749Z,81.25
2023-04-02T08:30:55.565Z,78.95
2023-04-02T08:33:22.187Z,79.97
2023-04-02T08:35:50.687Z,79.01
2023-04-02T08:38:49.535Z,79.17
2023-04-02T08:41:24.032Z,78.90
2023-04-02T08:47:41.023Z,78.40
2023-04-02T08:50:29.066Z,78.15
2023-04-02T08:53:01.638Z,78.54
2023-04-02T08:55:53.123Z,78.82
2023-04-02T08:58:44.190Z,77.81
2023-04-02T09:01:24.453Z,77.59
2023-04-02T09:03:54.679Z,77.96
2023-04-02T09:06:23.066Z,78.11
2023-04-02T09:09:01.285Z,77.42
2023-04-02T09:11:57.174Z,76.57
2023-04-02T09:14:36.006Z,78.02
2023-04-02T09:17:16.880Z,78.33
2023-04-02T09:19:52.833Z,78.25
2023-04-02T09:22:32.224Z,77.87
2023-04-02T09:25:04.290Z,76.16
2023-04-02T09:27:33.650Z,75.85
2023-04-02T09:30:18.729Z,75.70
2023-04-02T09:32:52.523Z,75.56
2023-04-02T09:35:30.540Z,73.76
2023-04-02T09:38:07.471Z,75.24
2023-04-02T09:41:19.312Z,75.89
2023-04-02T09:46:31.619Z,74.42
2023-04-02T09:49:01.472Z,74.03
2023-04-02T09:51:34.345Z,72.16
2023-04-02T09:54:03.753Z,71.07
2023-04-02T09:59:22.982Z,71.82
2023-04-02T10:02:22.227Z,70.58
2023-04-02T10:05:39.864Z,70.11
2023-04-02T10:08:30.044Z,65.46
2023-04-02T10:11:52.518Z,63.46
2023-04-02T10:23:31.490Z,61.13
2023-04-02T10:26:30.089Z,58.87
2023-04-02T10:29:26.370Z,55.05
2023-04-02T10:32:29.673Z,59.20
2023-04-02T10:35:27.646Z,54.43
2023-04-02T10:45:32.956Z,51.76
2023-04-02T10:53:19.861Z,49.30
2023-04-02T10:56:04.096Z,50.17
2023-04-02T10:58:49.233Z,48.22
2023-04-02T11:01:28.829Z,46.44
2023-04-02T11:04:28.697Z,49.84
2023-04-02T11:07:13.319Z,47.54
2023-04-02T11:09:47.865Z,45.40
2023-04-02T11:12:42.202Z,49.59
2023-04-02T11:15:19.156Z,45.13
2023-04-02T11:17:47.197Z,46.28
2023-04-02T11:20:43.930Z,47.63
2023-04-02T11:23:13.715Z,46.64
2023-04-02T11:25:43.511Z,43.37
2023-04-02T11:28:35.891Z,46.00
2023-04-02T11:31:05.304Z,45.27
2023-04-02T11:33:38.429Z,47.58
2023-04-02T11:36:44.469Z,46.38
2023-04-02T11:39:17.344Z,44.10
2023-04-02T11:42:26.637Z,46.67
2023-04-02T11:44:54.710Z,43.25
2023-04-02T11:47:26.304Z,43.79
2023-04-02T11:49:56.078Z,42.15
2023-04-02T11:52:31.526Z,44.89
2023-04-02T11:55:03.230Z,42.38
2023-04-02T11:58:20.590Z,44.78
2023-04-02T12:01:02.305Z,45.36
2023-04-02T12:03:53.593Z,45.42
2023-04-02T12:06:54.237Z,44.72
2023-04-02T12:09:49.697Z,45.37
2023-04-02T12:12:31.486Z,45.39
2023-04-02T12:14:58.715Z,43.99
2023-04-02T12:17:38.894Z,45.53
2023-04-02T12:20:09.438Z,44.81
2023-04-02T12:22:47.329Z,45.14
2023-04-02T12:25:32.712Z,46.59
2023-04-02T12:28:19.957Z,46.64
2023-04-02T12:30:48.186Z,46.21
2023-04-02T12:33:27.731Z,46.57
2023-04-02T12:36:02.529Z,48.59
2023-04-02T12:38:53.728Z,49.18
2023-04-02T12:41:27.365Z,49.45
2023-04-02T12:44:02.169Z,48.05
2023-04-02T12:46:30.648Z,46.47
2023-04-02T12:49:43.524Z,47.26
2023-04-02T12:52:21.319Z,47.57
2023-04-02T12:54:59.578Z,48.68
2023-04-02T12:57:26.192Z,48.31
2023-04-02T12:59:58.351Z,47.69
2023-04-02T13:02:27.991Z,47.11
2023-04-02T13:05:01.432Z,47.29
2023-04-02T13:07:33.405Z,49.19
2023-04-02T13:10:05.430Z,48.02
2023-04-02T13:12:36.107Z,47.50
2023-04-02T13:15:05.767Z,47.58
2023-04-02T13:17:39.973Z,47.83
2023-04-02T13:20:38.538Z,48.10
2023-04-02T13:23:29.676Z,49.59
2023-04-02T13:25:58.919Z,46.99
2023-04-02T13:28:26.606Z,46.09
2023-04-02T13:30:53.221Z,47.05
2023-04-02T13:33:20.463Z,48.22
2023-04-02T13:35:48.295Z,46.88
2023-04-02T13:38:14.745Z,49.14
2023-04-02T13:40:41.378Z,47.45
2023-04-02T13:43:11.824Z,46.35
2023-04-02T13:45:40.939Z,48.01
2023-04-02T13:48:14.104Z,47.98
2023-04-02T13:50:41.313Z,46.81
2023-04-02T13:53:13.642Z,45.81
2023-04-02T13:55:42.771Z,45.97
2023-04-02T13:58:10.862Z,47.25
2023-04-02T14:00:37.883Z,46.54
2023-04-02T14:03:11.338Z,47.50
2023-04-02T14:05:42.535Z,46.56
2023-04-02T14:08:10.959Z,46.26
2023-04-02T14:10:54.260Z,46.89
2023-04-02T14:13:37.119Z,47.21
2023-04-02T14:16:31.309Z,48.51
2023-04-02T14:19:28.063Z,48.56
2023-04-02T14:22:30.517Z,46.65
2023-04-02T14:25:36.584Z,47.35
2023-04-02T14:28:40.306Z,49.11
2023-04-02T14:31:34.155Z,49.49
2023-04-02T14:34:22.416Z,48.50
2023-04-02T14:37:04.380Z,49.25
2023-04-02T14:39:57.535Z,49.64
2023-04-02T14:42:46.227Z,49.47
2023-04-02T14:45:28.422Z,49.49
2023-04-02T14:48:02.429Z,49.03
2023-04-02T14:50:42.746Z,48.50
2023-04-02T14:53:34.719Z,48.49
2023-04-02T14:56:08.004Z,49.07
2023-04-02T14:58:39.062Z,48.66
2023-04-02T15:01:13.949Z,49.43
2023-04-02T15:03:51.788Z,48.80
2023-04-02T15:06:26.218Z,48.10
2023-04-02T15:09:09.814Z,47.50
2023-04-02T15:11:39.344Z,48.87
2023-04-02T15:14:23.510Z,47.92
2023-04-02T15:16:49.970Z,48.08
2023-04-02T15:19:18.147Z,48.93
2023-04-02T15:22:20.389Z,49.72
2023-04-02T15:24:57.649Z,49.39
2023-04-02T15:27:27.376Z,48.71
2023-04-02T15:30:07.373Z,48.97
2023-04-02T15:32:33.897Z,48.71
2023-04-02T15:35:23.315Z,49.43
2023-04-02T15:37:54.170Z,49.04
2023-04-02T15:40:28.805Z,49.37
2023-04-02T15:43:20.271Z,49.22
2023-04-02T15:46:03.764Z,50.05
2023-04-02T15:48:48.492Z,49.66
2023-04-02T15:51:36.989Z,49.38
2023-04-02T15:54:19.541Z,49.84
2023-04-02T15:57:11.745Z,50.03
2023-04-02T16:00:09.766Z,50.64
2023-04-02T16:03:20.820Z,49.67
2023-04-02T16:06:16.698Z,50.89
2023-04-02T16:09:08.068Z,50.77
2023-04-02T16:11:43.780Z,51.49
2023-04-02T16:14:22.621Z,51.22
2023-04-02T16:16:52.444Z,51.72
2023-04-02T16:19:28.183Z,51.25
2023-04-02T16:22:19.261Z,50.80
2023-04-02T16:24:49.971Z,51.53
2023-04-02T16:27:24.111Z,51.97
2023-04-02T16:30:23.392Z,52.16
2023-04-02T16:33:01.498Z,52.31
2023-04-02T16:36:07.092Z,52.00
2023-04-02T16:38:50.316Z,52.40
2023-04-02T16:41:28.543Z,52.11
2023-04-02T16:44:22.806Z,51.91
2023-04-02T16:47:12.714Z,53.34
2023-04-02T16:49:57.645Z,53.71
2023-04-02T16:52:35.933Z,53.80
2023-04-02T16:55:23.467Z,53.76
2023-04-02T16:58:18.507Z,54.44
2023-04-02T17:01:15.591Z,54.81
2023-04-02T17:03:44.939Z,53.66
2023-04-02T17:06:29.583Z,55.27
2023-04-02T17:09:16.424Z,54.45
2023-04-02T17:11:49.262Z,54.98
2023-04-02T17:14:29.575Z,54.68
2023-04-02T17:17:01.491Z,55.11
2023-04-02T17:19:29.660Z,55.56
2023-04-02T17:22:04.940Z,55.13
2023-04-02T17:24:41.981Z,56.00
2023-04-02T17:27:17.690Z,56.24
2023-04-02T17:29:47.332Z,56.52
2023-04-02T17:32:27.313Z,56.61
2023-04-02T17:34:55.585Z,56.19
2023-04-02T17:37:39.723Z,56.81
2023-04-02T17:40:19.174Z,56.91
2023-04-02T17:43:13.650Z,56.78
2023-04-02T17:45:47.770Z,55.90
2023-04-02T17:48:26.729Z,56.41
2023-04-02T17:50:55.990Z,57.20
2023-04-02T17:53:37.853Z,57.19
2023-04-02T17:56:38.476Z,57.47
2023-04-02T17:59:21.649Z,57.62
2023-04-02T18:02:04.854Z,57.55
2023-04-02T18:04:46.578Z,58.34
2023-04-02T18:07:28.272Z,58.57
2023-04-02T18:10:39.524Z,58.55
2023-04-02T18:13:14.933Z,58.91
2023-04-02T18:16:08.891Z,59.15
2023-04-02T18:18:46.827Z,59.29
2023-04-02T18:21:24.529Z,58.59
2023-04-02T18:24:12.614Z,58.87
2023-04-02T18:27:21.364Z,59.77
2023-04-02T18:30:04.273Z,59.67
2023-04-02T18:32:55.018Z,59.76
2023-04-02T18:35:34.549Z,59.67
2023-04-02T18:38:01.671Z,60.21
2023-04-02T18:40:49.673Z,61.68
2023-04-02T18:43:36.870Z,60.56
2023-04-02T18:46:28.249Z,61.07
2023-04-02T18:49:06.376Z,61.15
2023-04-02T18:51:38.832Z,60.73
2023-04-02T18:54:24.010Z,61.16
2023-04-02T18:56:50.938Z,62.04
2023-04-02T18:59:44.664Z,61.35
2023-04-02T19:02:26.124Z,62.72
2023-04-02T19:05:04.241Z,61.93
2023-04-02T19:07:36.854Z,62.08
2023-04-02T19:10:20.887Z,62.20
2023-04-02T19:12:47.372Z,61.84
2023-04-02T19:15:20.111Z,62.07
2023-04-02T19:18:07.757Z,62.64
2023-04-02T19:21:00.858Z,62.08
2023-04-02T19:23:59.741Z,62.74
2023-04-02T19:26:34.926Z,63.02
2023-04-02T19:29:22.884Z,64.14
2023-04-02T19:32:05.821Z,63.73
2023-04-02T19:34:46.145Z,62.92
2023-04-02T19:37:27.346Z,64.10
2023-04-02T19:40:19.824Z,63.48
2023-04-02T19:42:49.225Z,63.63
2023-04-02T19:45:33.468Z,64.20
2023-04-02T19:48:09.880Z,64.36
2023-04-02T19:50:37.021Z,64.41
2023-04-02T19:53:03.521Z,64.64
2023-04-02T19:55:30.455Z,64.86
2023-04-02T19:58:08.489Z,64.76
2023-04-02T20:00:43.623Z,65.26
2023-04-02T20:03:10.244Z,65.56
2023-04-02T20:05:40.300Z,65.62
2023-04-02T20:08:06.864Z,65.62
2023-04-02T20:10:35.607Z,65.18
2023-04-02T20:13:02.854Z,66.29
2023-04-02T20:15:29.627Z,66.12
2023-04-02T20:17:56.190Z,66.09
2023-04-02T20:20:25.608Z,65.61
2023-04-02T20:22:52.118Z,66.08
2023-04-02T20:25:18.619Z,66.45
2023-04-02T20:27:45.844Z,65.53
2023-04-02T20:30:12.912Z,65.85
2023-04-02T20:32:40.447Z,66.19
2023-04-02T20:35:07.832Z,65.61
2023-04-02T20:37:35.176Z,65.79
2023-04-02T20:40:01.962Z,65.25
2023-04-02T20:42:28.683Z,65.73
2023-04-02T20:44:55.414Z,65.77
2023-04-02T20:47:24.910Z,65.84
2023-04-02T20:49:52.189Z,65.67
2023-04-02T20:52:18.627Z,65.48
2023-04-02T20:54:46.667Z,65.47
2023-04-02T20:57:15.617Z,65.83
2023-04-02T20:59:42.307Z,65.25
2023-04-02T21:02:11.679Z,66.27
2023-04-02T21:04:38.270Z,66.01
2023-04-02T21:07:04.792Z,66.16
2023-04-02T21:09:32.008Z,65.93
2023-04-02T21:11:59.269Z,66.23
2023-04-02T21:14:26.172Z,66.60
2023-04-02T21:16:52.925Z,66.42
2023-04-02T21:19:19.329Z,66.28
2023-04-02T21:21:45.809Z,66.79
2023-04-02T21:24:12.267Z,66.39
2023-04-02T21:26:41.187Z,66.69
2023-04-02T21:29:07.886Z,66.15
2023-04-02T21:31:37.225Z,66.28
2023-04-02T21:34:04.971Z,66.53
2023-04-02T21:36:37.062Z,66.54
2023-04-02T21:39:06.956Z,65.97
2023-04-02T21:41:36.353Z,65.59
2023-04-02T21:44:05.708Z,65.95
2023-04-02T21:46:36.488Z,66.48
2023-04-02T21:49:06.352Z,66.41
2023-04-02T21:51:34.834Z,66.37
2023-04-02T21:54:01.953Z,66.07
2023-04-02T21:56:34.414Z,66.29
2023-04-02T21:59:02.563Z,66.39
2023-04-02T22:01:34.855Z,66.46
2023-04-02T22:04:07.273Z,66.57
2023-04-02T22:06:40.944Z,66.71
2023-04-02T22:09:11.402Z,66.75
2023-04-02T22:11:42.943Z,66.35
2023-04-02T22:14:10.035Z,66.92
2023-04-02T22:16:37.678Z,67.75
2023-04-02T22:19:15.623Z,67.56
2023-04-02T22:21:42.806Z,67.72
2023-04-02T22:24:16.115Z,67.78
2023-04-02T22:26:44.224Z,66.83
2023-04-02T22:29:11.154Z,67.54
2023-04-02T22:31:38.348Z,68.08
2023-04-02T22:34:06.107Z,68.17
2023-04-02T22:36:32.845Z,67.60
2023-04-02T22:39:00.328Z,67.59
2023-04-02T22:41:31.902Z,68.56
2023-04-02T22:44:01.728Z,68.16
2023-04-02T22:46:29.864Z,68.20
2023-04-02T22:48:56.949Z,68.36
2023-04-02T22:51:24.906Z,68.86
2023-04-02T22:53:54.108Z,68.66
2023-04-02T22:56:27.515Z,68.81
2023-04-02T22:58:54.097Z,68.30
2023-04-02T23:01:33.402Z,69.09
2023-04-02T23:04:00.531Z,69.35
2023-04-02T23:06:27.849Z,69.65
2023-04-02T23:08:54.438Z,69.11
2023-04-02T23:11:26.282Z,70.26
2023-04-02T23:13:56.537Z,68.92
2023-04-02T23:16:24.331Z,69.56
2023-04-02T23:18:50.969Z,69.07
2023-04-02T23:21:19.184Z,68.66
2023-04-02T23:23:46.450Z,69.29
2023-04-02T23:26:21.110Z,69.19
2023-04-02T23:28:48.919Z,69.33
2023-04-02T23:31:20.114Z,69.33
2023-04-02T23:33:46.847Z,69.41
2023-04-02T23:36:34.761Z,69.48
2023-04-02T23:39:11.244Z,68.78
2023-04-02T23:41:40.083Z,69.76
2023-04-02T23:44:07.151Z,69.03
2023-04-02T23:46:33.982Z,68.95
2023-04-02T23:49:03.737Z,69.59
2023-04-02T23:51:32.407Z,69.14
2023-04-02T23:53:59.296Z,69.57
2023-04-02T23:56:25.953Z,69.55
2023-04-02T23:58:52.617Z,69.92
